Time;durP1;ratioP1;P1;durP2;ratioP2;P2;SDS_P1;SDS_P2;PMS_P1;PMS_P2;Temp;Humidity;BMP_temperature;BMP_pressure;BME280_temperature;BME280_humidity;BME280_pressure;Samples;Min_cycle;Max_cycle;Signal;HPM_P1;HPM_P2
2022/04/08 00:01:52;;;;;;;8.23;2.30;;;;;;;;;;4999154;28;20209;-77
2022/04/08 00:04:19;;;;;;;6.47;1.67;;;;;;;;;;4997308;28;20288;-78
2022/04/08 00:06:47;;;;;;;7.37;1.87;;;;;;;;;;4999285;28;20299;-78
2022/04/08 00:09:15;;;;;;;6.57;2.20;;;;;;;;;;4998441;28;20744;-79
2022/04/08 00:11:42;;;;;;;4.20;1.90;;;;;;;;;;4998147;28;20659;-78
2022/04/08 00:14:10;;;;;;;9.67;2.63;;;;;;;;;;5004213;28;20244;-78
2022/04/08 00:16:38;;;;;;;10.33;2.40;;;;;;;;;;5005402;28;20244;-77
2022/04/08 00:19:05;;;;;;;7.87;2.57;;;;;;;;;;5007160;28;20201;-79
2022/04/08 00:21:33;;;;;;;13.70;2.27;;;;;;;;;;5009738;28;20268;-78
2022/04/08 00:24:00;;;;;;;13.80;2.87;;;;;;;;;;5003167;28;20558;-78
2022/04/08 00:26:28;;;;;;;9.43;2.93;;;;;;;;;;5005165;28;20243;-78
2022/04/08 00:28:56;;;;;;;6.53;2.70;;;;;;;;;;5001895;28;20660;-78
2022/04/08 00:31:23;;;;;;;3.53;2.23;;;;;;;;;;5003476;28;20702;-78
2022/04/08 00:33:50;;;;;;;5.67;2.37;;;;;;;;;;5002916;28;20231;-77
2022/04/08 00:36:17;;;;;;;9.90;1.93;;;;;;;;;;5000843;28;20299;-77
2022/04/08 00:38:44;;;;;;;6.43;2.85;;;;;;;;;;5010347;23;20465;-78
2022/04/08 00:41:12;;;;;;;5.07;1.70;;;;;;;;;;4998819;28;20740;-76
2022/04/08 00:43:41;;;;;;;10.27;2.63;;;;;;;;;;4997591;28;20271;-77
2022/04/08 00:46:10;;;;;;;6.53;2.23;;;;;;;;;;4997879;28;20208;-78
2022/04/08 00:48:38;;;;;;;8.93;2.40;;;;;;;;;;5003601;28;20209;-77
2022/04/08 00:51:06;;;;;;;10.63;2.33;;;;;;;;;;5000828;28;20232;-77
2022/04/08 00:53:33;;;;;;;10.80;2.27;;;;;;;;;;4998541;28;20225;-77
2022/04/08 00:56:00;;;;;;;7.70;2.53;;;;;;;;;;5002808;28;20231;-76
2022/04/08 00:58:28;;;;;;;6.93;2.50;;;;;;;;;;5000296;28;20291;-77
2022/04/08 01:00:56;;;;;;;4.27;2.37;;;;;;;;;;5002325;28;20725;-78
2022/04/08 01:03:23;;;;;;;5.27;2.80;;;;;;;;;;4999852;28;20207;-76
2022/04/08 01:05:50;;;;;;;7.97;2.97;;;;;;;;;;5003209;28;20726;-77
2022/04/08 01:08:18;;;;;;;9.27;2.70;;;;;;;;;;5000229;28;20201;-77
2022/04/08 01:10:45;;;;;;;5.83;3.10;;;;;;;;;;5000291;28;20232;-76
2022/04/08 01:13:12;;;;;;;4.20;2.10;;;;;;;;;;4999858;28;20220;-78
2022/04/08 01:15:39;;;;;;;5.57;2.80;;;;;;;;;;5001151;28;20306;-78
2022/04/08 01:18:10;;;;;;;11.63;3.10;;;;;;;;;;5000467;28;20197;-77
2022/04/08 01:20:37;;;;;;;4.63;2.37;;;;;;;;;;4996113;28;20671;-77
2022/04/08 01:23:05;;;;;;;9.20;3.13;;;;;;;;;;5004748;28;20223;-78
2022/04/08 01:25:33;;;;;;;6.30;2.40;;;;;;;;;;4999792;28;20240;-78
2022/04/08 01:28:01;;;;;;;11.03;2.97;;;;;;;;;;5000893;28;20200;-77
2022/04/08 01:30:28;;;;;;;6.53;2.27;;;;;;;;;;4999950;28;20335;-78
2022/04/08 01:32:55;;;;;;;7.07;1.90;;;;;;;;;;5001907;28;20228;-77
2022/04/08 01:35:22;;;;;;;7.80;2.10;;;;;;;;;;5003383;28;20299;-77
2022/04/08 01:37:49;;;;;;;6.10;2.30;;;;;;;;;;5001051;28;20658;-77
2022/04/08 01:40:17;;;;;;;3.70;1.97;;;;;;;;;;5002953;28;20804;-77
2022/04/08 01:42:45;;;;;;;4.57;2.23;;;;;;;;;;5001894;28;20698;-78
2022/04/08 01:45:13;;;;;;;4.27;2.40;;;;;;;;;;5005995;28;20205;-77
2022/04/08 01:47:41;;;;;;;6.20;2.63;;;;;;;;;;5002580;28;20278;-77
2022/04/08 01:50:09;;;;;;;6.40;2.50;;;;;;;;;;4999112;28;20315;-78
2022/04/08 01:52:36;;;;;;;8.30;2.90;;;;;;;;;;4999341;28;20871;-78
2022/04/08 01:55:05;;;;;;;5.33;2.73;;;;;;;;;;5004357;28;20246;-78
2022/04/08 01:57:33;;;;;;;5.33;3.03;;;;;;;;;;5000136;28;20205;-78
2022/04/08 02:00:02;;;;;;;9.07;2.93;;;;;;;;;;5001161;28;20251;-77
2022/04/08 02:02:29;;;;;;;6.33;3.00;;;;;;;;;;5001607;28;20651;-77
2022/04/08 02:04:56;;;;;;;6.87;3.20;;;;;;;;;;4999732;28;20200;-78
2022/04/08 02:07:23;;;;;;;5.23;3.23;;;;;;;;;;4998991;28;20658;-77
2022/04/08 02:09:50;;;;;;;6.97;3.90;;;;;;;;;;4999697;28;20339;-79
2022/04/08 02:12:18;;;;;;;4.83;3.43;;;;;;;;;;4999595;28;20242;-78
2022/04/08 02:14:45;;;;;;;8.47;4.00;;;;;;;;;;5002367;28;20212;-77
2022/04/08 02:17:14;;;;;;;7.40;3.50;;;;;;;;;;4999942;28;20295;-78
2022/04/08 02:19:41;;;;;;;7.60;3.40;;;;;;;;;;5000470;28;20322;-78
2022/04/08 02:22:08;;;;;;;8.70;3.80;;;;;;;;;;5002652;28;20272;-78
2022/04/08 02:24:35;;;;;;;8.00;3.33;;;;;;;;;;4999850;28;20298;-78
2022/04/08 02:27:05;;;;;;;5.57;3.37;;;;;;;;;;5006089;28;20662;-78
2022/04/08 02:29:32;;;;;;;4.87;3.13;;;;;;;;;;4998731;28;20743;-78
2022/04/08 02:31:59;;;;;;;5.07;3.30;;;;;;;;;;5004683;28;20291;-78
2022/04/08 02:34:28;;;;;;;5.50;3.33;;;;;;;;;;4998580;28;20204;-79
2022/04/08 02:36:55;;;;;;;5.43;3.30;;;;;;;;;;5001190;28;20295;-79
2022/04/08 02:39:22;;;;;;;5.07;3.17;;;;;;;;;;5000753;28;20259;-77
2022/04/08 02:41:49;;;;;;;2.93;2.03;;;;;;;;;;5002301;28;21075;-78
2022/04/08 02:44:16;;;;;;;9.10;3.17;;;;;;;;;;5002167;28;20301;-77
2022/04/08 02:46:43;;;;;;;3.90;3.10;;;;;;;;;;4997538;28;20322;-78
2022/04/08 02:49:11;;;;;;;5.73;3.10;;;;;;;;;;4996893;28;20510;-77
2022/04/08 02:51:39;;;;;;;8.90;3.17;;;;;;;;;;5000466;28;20239;-78
2022/04/08 02:54:06;;;;;;;6.00;3.50;;;;;;;;;;5002891;28;20256;-77
2022/04/08 02:56:34;;;;;;;8.77;3.23;;;;;;;;;;5001914;28;20311;-77
2022/04/08 02:59:01;;;;;;;7.77;3.10;;;;;;;;;;5000559;28;20876;-78
2022/04/08 03:01:28;;;;;;;9.70;3.93;;;;;;;;;;5001133;28;20231;-77
2022/04/08 03:03:55;;;;;;;7.37;2.70;;;;;;;;;;5001729;28;20295;-78
2022/04/08 03:06:23;;;;;;;7.07;3.30;;;;;;;;;;5004777;28;20201;-78
2022/04/08 03:08:51;;;;;;;7.73;3.53;;;;;;;;;;5007105;28;20299;-78
2022/04/08 03:11:18;;;;;;;7.20;3.37;;;;;;;;;;5004674;28;20709;-77
2022/04/08 03:13:45;;;;;;;7.03;3.33;;;;;;;;;;5008790;28;20311;-78
2022/04/08 03:16:13;;;;;;;10.47;4.07;;;;;;;;;;5007135;28;20205;-78
2022/04/08 03:18:40;;;;;;;7.97;3.63;;;;;;;;;;5004078;28;20797;-78
2022/04/08 03:21:07;;;;;;;7.27;3.60;;;;;;;;;;5004068;28;20845;-77
2022/04/08 03:23:34;;;;;;;8.33;4.10;;;;;;;;;;5003555;28;20231;-77
2022/04/08 03:26:03;;;;;;;8.47;4.50;;;;;;;;;;5004486;28;20556;-78
2022/04/08 03:28:31;;;;;;;9.17;4.03;;;;;;;;;;5000697;28;20204;-79
2022/04/08 03:30:59;;;;;;;8.07;3.93;;;;;;;;;;5003465;28;20227;-78
2022/04/08 03:33:26;;;;;;;8.77;4.17;;;;;;;;;;5002986;28;20748;-79
2022/04/08 03:35:53;;;;;;;6.80;3.47;;;;;;;;;;5000734;28;20302;-79
2022/04/08 03:38:20;;;;;;;7.60;4.17;;;;;;;;;;5001712;28;20248;-77
2022/04/08 03:40:48;;;;;;;9.77;4.17;;;;;;;;;;5010040;28;20246;-78
2022/04/08 03:43:16;;;;;;;8.63;4.37;;;;;;;;;;5003728;28;20297;-78
2022/04/08 03:45:43;;;;;;;8.77;4.10;;;;;;;;;;5004500;28;20208;-78
2022/04/08 03:48:11;;;;;;;10.60;3.83;;;;;;;;;;5003235;28;20239;-78
2022/04/08 03:50:38;;;;;;;14.63;5.93;;;;;;;;;;5001861;28;20419;-77
2022/04/08 03:53:06;;;;;;;8.27;5.00;;;;;;;;;;5004125;28;20228;-78
2022/04/08 03:55:33;;;;;;;10.20;4.63;;;;;;;;;;5001222;28;20301;-78
2022/04/08 03:58:00;;;;;;;8.33;4.50;;;;;;;;;;5006512;28;20276;-78
2022/04/08 04:00:29;;;;;;;18.17;4.93;;;;;;;;;;5002442;28;20251;-78
2022/04/08 04:02:56;;;;;;;7.80;4.50;;;;;;;;;;5001604;28;20224;-78
2022/04/08 04:05:24;;;;;;;12.47;5.00;;;;;;;;;;5004608;28;20211;-78
2022/04/08 04:07:51;;;;;;;12.97;5.07;;;;;;;;;;5003581;28;20238;-78
2022/04/08 04:10:18;;;;;;;10.43;4.83;;;;;;;;;;5004614;28;20230;-77
2022/04/08 04:12:45;;;;;;;14.23;5.10;;;;;;;;;;4999719;28;20303;-78
2022/04/08 04:15:13;;;;;;;9.70;4.97;;;;;;;;;;5003006;28;20291;-78
2022/04/08 04:17:42;;;;;;;6.00;3.83;;;;;;;;;;4997545;28;20223;-78
2022/04/08 04:20:10;;;;;;;11.63;4.93;;;;;;;;;;5000551;28;20292;-78
2022/04/08 04:22:37;;;;;;;9.00;4.83;;;;;;;;;;5003377;28;20701;-77
2022/04/08 04:25:04;;;;;;;11.40;5.43;;;;;;;;;;5001139;28;20236;-78
2022/04/08 04:27:32;;;;;;;8.60;5.17;;;;;;;;;;5001014;28;20737;-78
2022/04/08 04:29:59;;;;;;;12.77;5.70;;;;;;;;;;4999820;28;20248;-77
2022/04/08 04:32:26;;;;;;;9.77;5.50;;;;;;;;;;5001156;28;20676;-78
2022/04/08 04:34:55;;;;;;;10.83;5.40;;;;;;;;;;5007130;28;20723;-78
2022/04/08 04:37:22;;;;;;;16.57;6.20;;;;;;;;;;5003857;28;20395;-77
2022/04/08 04:39:49;;;;;;;12.20;5.67;;;;;;;;;;5006424;28;20227;-78
2022/04/08 04:42:16;;;;;;;11.47;5.67;;;;;;;;;;5001874;28;20870;-79
2022/04/08 04:44:43;;;;;;;16.63;5.77;;;;;;;;;;5000327;28;20286;-77
2022/04/08 04:47:11;;;;;;;12.20;6.43;;;;;;;;;;5000994;28;20294;-78
2022/04/08 04:49:38;;;;;;;12.30;6.23;;;;;;;;;;4998263;28;20359;-78
2022/04/08 04:52:07;;;;;;;11.03;5.93;;;;;;;;;;5005198;28;20201;-78
2022/04/08 04:54:34;;;;;;;13.73;6.77;;;;;;;;;;5004986;28;20927;-77
2022/04/08 04:57:01;;;;;;;15.70;6.73;;;;;;;;;;5000367;28;20240;-77
2022/04/08 04:59:29;;;;;;;11.97;6.40;;;;;;;;;;5005950;28;20278;-78
2022/04/08 05:01:56;;;;;;;14.90;7.07;;;;;;;;;;5003372;28;20240;-78
2022/04/08 05:04:23;;;;;;;10.80;5.83;;;;;;;;;;5002479;28;20287;-78
2022/04/08 05:06:50;;;;;;;13.83;5.83;;;;;;;;;;4999645;28;20567;-76
2022/04/08 05:09:19;;;;;;;14.43;7.00;;;;;;;;;;5006004;28;20628;-77
2022/04/08 05:11:46;;;;;;;13.37;6.13;;;;;;;;;;5006120;28;20247;-77
2022/04/08 05:14:14;;;;;;;13.47;6.70;;;;;;;;;;5000020;28;20343;-79
2022/04/08 05:16:41;;;;;;;13.63;6.57;;;;;;;;;;5007975;28;20212;-77
2022/04/08 05:19:08;;;;;;;18.17;7.13;;;;;;;;;;5009323;28;20209;-78
2022/04/08 05:21:35;;;;;;;17.33;7.47;;;;;;;;;;5007295;28;20288;-78
2022/04/08 05:24:02;;;;;;;13.53;7.00;;;;;;;;;;5010333;28;20659;-78
2022/04/08 05:26:31;;;;;;;17.80;6.87;;;;;;;;;;5005854;28;21114;-78
2022/04/08 05:28:58;;;;;;;14.83;7.30;;;;;;;;;;5000620;28;20209;-78
2022/04/08 05:31:25;;;;;;;12.80;6.60;;;;;;;;;;5003060;28;20657;-77
2022/04/08 05:33:52;;;;;;;14.83;6.97;;;;;;;;;;4995955;28;20227;-78
2022/04/08 05:36:20;;;;;;;13.60;7.33;;;;;;;;;;5000915;28;20215;-78
2022/04/08 05:38:47;;;;;;;15.67;8.40;;;;;;;;;;4998820;28;20209;-79
2022/04/08 05:41:14;;;;;;;16.97;6.90;;;;;;;;;;5005731;28;20228;-78
2022/04/08 05:43:44;;;;;;;17.47;7.63;;;;;;;;;;5004856;28;20247;-79
2022/04/08 05:46:11;;;;;;;15.97;6.77;;;;;;;;;;4999210;28;20282;-78
2022/04/08 05:48:39;;;;;;;12.97;6.70;;;;;;;;;;4993941;28;20600;-77
2022/04/08 05:51:06;;;;;;;11.77;6.30;;;;;;;;;;5000594;28;20688;-80
2022/04/08 05:53:33;;;;;;;12.90;6.97;;;;;;;;;;5008577;28;20322;-80
2022/04/08 05:56:02;;;;;;;11.20;5.70;;;;;;;;;;5005595;28;20661;-80
2022/04/08 05:58:29;;;;;;;11.37;5.57;;;;;;;;;;5008068;28;20213;-80
2022/04/08 06:00:58;;;;;;;11.10;6.27;;;;;;;;;;5008241;28;20259;-80
2022/04/08 06:03:25;;;;;;;9.87;6.07;;;;;;;;;;5009363;28;20204;-79
2022/04/08 06:05:53;;;;;;;10.63;6.13;;;;;;;;;;5004778;28;20232;-79
2022/04/08 06:08:20;;;;;;;11.60;5.83;;;;;;;;;;5006920;28;20236;-79
2022/04/08 06:10:47;;;;;;;9.37;5.10;;;;;;;;;;5003178;28;20800;-80
2022/04/08 06:13:15;;;;;;;8.50;5.33;;;;;;;;;;5009790;28;20232;-80
2022/04/08 06:15:42;;;;;;;9.93;5.30;;;;;;;;;;5007198;28;20213;-80
2022/04/08 06:18:15;;;;;;;9.47;4.70;;;;;;;;;;5007575;28;20224;-80
2022/04/08 06:20:42;;;;;;;11.87;5.30;;;;;;;;;;5005803;28;20225;-80
2022/04/08 06:23:10;;;;;;;7.93;5.10;;;;;;;;;;5008378;28;20581;-80
2022/04/08 06:25:37;;;;;;;10.30;5.60;;;;;;;;;;5003184;28;20201;-80
2022/04/08 06:28:05;;;;;;;10.00;5.00;;;;;;;;;;5013873;28;20244;-80
2022/04/08 06:30:33;;;;;;;13.43;5.53;;;;;;;;;;5002918;28;20292;-83
2022/04/08 06:33:00;;;;;;;7.43;4.53;;;;;;;;;;5001323;28;20212;-83
2022/04/08 06:35:32;;;;;;;10.17;5.10;;;;;;;;;;5008842;28;20306;-84
2022/04/08 06:38:00;;;;;;;8.10;4.63;;;;;;;;;;5026985;23;20291;-84
2022/04/08 06:40:27;;;;;;;7.47;4.73;;;;;;;;;;5009723;28;20200;-84
2022/04/08 06:42:55;;;;;;;8.57;4.90;;;;;;;;;;5010436;28;20208;-84
2022/04/08 06:45:24;;;;;;;9.47;4.90;;;;;;;;;;5011636;28;20197;-81
2022/04/08 06:47:51;;;;;;;6.80;4.47;;;;;;;;;;5009919;28;20759;-82
2022/04/08 06:50:20;;;;;;;8.40;4.17;;;;;;;;;;5013619;28;20201;-84
2022/04/08 06:52:49;;;;;;;10.00;4.50;;;;;;;;;;5009405;28;20665;-84
2022/04/08 06:55:16;;;;;;;8.13;4.80;;;;;;;;;;5011003;28;20700;-84
2022/04/08 06:57:43;;;;;;;6.47;4.03;;;;;;;;;;5007631;28;20256;-83
2022/04/08 07:00:12;;;;;;;6.87;3.70;;;;;;;;;;5007785;28;20263;-82
2022/04/08 07:02:39;;;;;;;9.20;4.00;;;;;;;;;;5009867;28;20204;-82
2022/04/08 07:05:07;;;;;;;8.37;4.27;;;;;;;;;;5008397;28;20204;-82
2022/04/08 07:07:35;;;;;;;7.53;4.20;;;;;;;;;;5008287;28;20207;-82
2022/04/08 07:10:04;;;;;;;8.23;4.00;;;;;;;;;;5009144;28;20270;-82
2022/04/08 07:12:31;;;;;;;7.50;3.70;;;;;;;;;;5008121;28;20212;-83
2022/04/08 07:14:58;;;;;;;10.10;4.10;;;;;;;;;;5010207;28;20230;-84
2022/04/08 07:17:29;;;;;;;6.43;3.50;;;;;;;;;;5005892;28;20219;-82
2022/04/08 07:19:57;;;;;;;8.17;3.43;;;;;;;;;;5012475;28;20227;-83
2022/04/08 07:22:24;;;;;;;6.53;3.50;;;;;;;;;;5009817;28;20661;-82
2022/04/08 07:24:51;;;;;;;7.03;2.93;;;;;;;;;;5009546;28;20599;-83
2022/04/08 07:27:21;;;;;;;7.27;3.13;;;;;;;;;;5011260;28;20687;-83
2022/04/08 07:29:48;;;;;;;5.43;3.00;;;;;;;;;;5012805;28;20672;-83
2022/04/08 07:32:20;;;;;;;4.90;2.73;;;;;;;;;;5008430;28;20208;-83
2022/04/08 07:34:48;;;;;;;4.63;2.50;;;;;;;;;;5011590;28;20563;-83
2022/04/08 07:37:15;;;;;;;3.67;2.33;;;;;;;;;;5007561;28;20678;-83
2022/04/08 07:39:43;;;;;;;10.53;2.43;;;;;;;;;;5010942;28;20246;-85
2022/04/08 07:42:12;;;;;;;4.10;2.17;;;;;;;;;;5011712;28;20220;-83
2022/04/08 07:44:40;;;;;;;4.67;2.50;;;;;;;;;;5010841;28;20255;-83
2022/04/08 07:47:10;;;;;;;3.57;1.90;;;7.20;99.90;;;;;;5010773;28;20295;-86
2022/04/08 07:49:38;;;;;;;6.43;2.57;;;12.80;99.90;;;;;;5010473;28;20774;-83
2022/04/08 07:52:05;;;;;;;4.83;2.37;;;11.70;99.90;;;;;;5010300;28;20247;-83
2022/04/08 07:54:32;;;;;;;3.53;2.40;;;10.90;99.90;;;;;;5013121;28;20232;-83
2022/04/08 07:56:59;;;;;;;5.33;2.60;;;10.50;99.90;;;;;;5010888;28;20196;-83
2022/04/08 07:59:26;;;;;;;3.67;2.50;;;10.00;99.90;;;;;;5013579;28;20724;-85
2022/04/08 08:01:57;;;;;;;4.30;2.40;;;9.70;99.90;;;;;;5015688;28;20275;-83
2022/04/08 08:04:24;;;;;;;4.33;2.23;;;9.30;99.90;;;;;;5012894;28;20215;-84
2022/04/08 08:06:50;;;;;;;5.40;2.50;;;9.30;99.90;;;;;;5017538;28;20742;-84
2022/04/08 08:09:17;;;;;;;6.27;2.83;;;9.00;99.90;;;;;;5015406;28;20235;-85
2022/04/08 08:11:44;;;;;;;6.03;2.83;;;8.90;99.90;;;;;;5013444;28;20243;-85
2022/04/08 08:14:11;;;;;;;4.67;2.33;;;8.90;99.90;;;;;;5011612;28;20303;-82
2022/04/08 08:16:38;;;;;;;6.83;2.50;;;8.70;99.90;;;;;;5012630;28;20296;-82
2022/04/08 08:19:06;;;;;;;5.27;2.57;;;8.60;99.90;;;;;;5012963;28;20239;-81
2022/04/08 08:21:33;;;;;;;4.70;3.13;;;8.60;99.90;;;;;;5012114;28;20227;-85
2022/04/08 08:24:00;;;;;;;5.67;3.03;;;8.30;99.90;;;;;;5013483;28;20823;-84
2022/04/08 08:26:29;;;;;;;5.27;2.90;;;8.20;99.90;;;;;;5011040;28;20208;-84
2022/04/08 08:28:56;;;;;;;6.07;2.30;;;8.10;99.90;;;;;;5012712;28;20268;-82
2022/04/08 08:31:23;;;;;;;4.73;2.33;;;8.00;99.90;;;;;;5010858;28;20255;-85
2022/04/08 08:33:50;;;;;;;5.40;2.43;;;7.90;99.90;;;;;;5012299;28;20208;-83
2022/04/08 08:36:18;;;;;;;5.47;2.53;;;7.90;99.90;;;;;;5016099;28;20215;-82
2022/04/08 08:38:45;;;;;;;6.20;1.93;;;7.90;99.90;;;;;;5011897;28;20239;-84
2022/04/08 08:41:12;;;;;;;4.60;2.27;;;7.90;99.90;;;;;;5014612;28;20208;-84
2022/04/08 08:43:39;;;;;;;4.97;2.23;;;7.90;99.90;;;;;;5014678;28;20203;-85
2022/04/08 08:46:06;;;;;;;4.90;2.10;;;7.90;99.90;;;;;;5014543;28;20575;-84
2022/04/08 08:48:35;;;;;;;2.47;1.90;;;7.90;99.90;;;;;;5011758;28;20243;-84
2022/04/08 08:51:03;;;;;;;3.03;1.97;;;7.90;99.90;;;;;;5009605;28;20296;-84
2022/04/08 08:53:32;;;;;;;3.93;2.23;;;7.90;99.90;;;;;;5008899;28;20622;-84
2022/04/08 08:56:00;;;;;;;3.60;2.30;;;8.00;99.90;;;;;;5011732;28;20227;-84
2022/04/08 08:58:28;;;;;;;5.23;2.33;;;8.10;99.90;;;;;;5007634;28;20339;-84
2022/04/08 09:00:55;;;;;;;6.50;2.33;;;8.20;99.90;;;;;;5010346;28;20314;-84
2022/04/08 09:03:28;;;;;;;5.50;2.20;;;8.30;99.90;;;;;;5009956;28;20289;-84
2022/04/08 09:05:55;;;;;;;5.80;2.00;;;8.30;99.90;;;;;;5014752;28;20209;-85
2022/04/08 09:08:22;;;;;;;3.40;1.93;;;8.30;99.90;;;;;;5015345;28;20262;-85
2022/04/08 09:10:52;;;;;;;3.20;1.70;;;8.60;99.90;;;;;;5015879;28;20290;-84
2022/04/08 09:13:20;;;;;;;3.57;1.90;;;8.70;99.90;;;;;;5015569;28;20211;-83
2022/04/08 09:15:54;;;;;;;4.87;1.70;;;8.60;99.90;;;;;;5013397;28;20299;-84
2022/04/08 09:18:21;;;;;;;2.37;1.73;;;8.40;99.90;;;;;;5013600;28;20652;-85
2022/04/08 09:20:49;;;;;;;3.90;1.60;;;8.30;99.90;;;;;;5014527;28;20204;-85
2022/04/08 09:23:18;;;;;;;3.97;1.93;;;8.20;99.90;;;;;;5015625;28;20475;-83
2022/04/08 09:25:47;;;;;;;2.40;1.70;;;8.20;99.90;;;;;;5017196;28;20602;-83
2022/04/08 09:28:17;;;;;;;4.93;1.83;;;8.30;99.90;;;;;;5018940;28;20220;-84
2022/04/08 09:30:49;;;;;;;4.20;2.10;;;8.30;99.90;;;;;;5018863;28;20212;-83
2022/04/08 09:33:18;;;;;;;6.67;1.80;;;8.40;99.90;;;;;;5023868;28;20211;-83
2022/04/08 09:35:46;;;;;;;4.00;1.87;;;8.20;99.90;;;;;;5019310;28;20294;-83
2022/04/08 09:38:18;;;;;;;3.33;2.00;;;8.10;99.90;;;;;;5018675;28;20232;-86
2022/04/08 09:40:47;;;;;;;5.93;2.40;;;8.00;99.90;;;;;;5020363;28;20635;-85
2022/04/08 09:43:16;;;;;;;9.40;5.63;;;8.00;99.90;;;;;;5022359;28;20205;-84
2022/04/08 09:45:44;;;;;;;8.30;3.90;;;7.90;99.90;;;;;;5023471;28;20239;-84
2022/04/08 09:48:12;;;;;;;46.17;19.57;;;7.90;99.90;;;;;;5019602;28;20238;-83
2022/04/08 09:50:40;;;;;;;6.47;2.30;;;7.90;99.90;;;;;;5018852;28;20323;-83
2022/04/08 09:53:07;;;;;;;7.73;4.97;;;7.80;99.90;;;;;;5013315;28;20629;-83
2022/04/08 09:55:36;;;;;;;7.00;3.20;;;7.90;99.90;;;;;;5018966;28;20490;-83
2022/04/08 09:58:06;;;;;;;9.13;5.13;;;8.10;99.90;;;;;;5015239;28;20287;-82
2022/04/08 10:00:35;;;;;;;5.00;2.20;;;8.20;99.90;;;;;;5013100;28;20235;-83
2022/04/08 10:03:03;;;;;;;5.47;1.87;;;8.30;99.90;;;;;;5013919;28;20308;-82
2022/04/08 10:05:31;;;;;;;6.40;2.60;;;8.20;99.90;;;;;;5012821;28;20561;-83
2022/04/08 10:07:58;;;;;;;4.60;2.30;;;8.20;99.90;;;;;;5008513;28;20220;-83
2022/04/08 10:10:30;;;;;;;3.73;2.20;;;8.30;99.90;;;;;;5009732;28;20213;-82
2022/04/08 10:13:18;;;;;;;4.00;3.27;;;8.50;99.90;;;;;;5013789;28;20201;-83
2022/04/08 10:16:03;;;;;;;9.17;5.97;;;8.60;99.90;;;;;;5030324;28;20264;-85
2022/04/08 10:18:38;;;;;;;4.93;2.80;;;8.50;99.90;;;;;;5018072;28;20233;-83
2022/04/08 10:21:05;;;;;;;8.80;3.37;;;8.50;99.90;;;;;;5015400;28;20208;-83
2022/04/08 10:23:37;;;;;;;3.30;2.20;;;8.60;99.90;;;;;;5016586;28;20205;-84
2022/04/08 10:26:05;;;;;;;11.03;5.83;;;8.70;99.90;;;;;;5016784;28;20224;-84
2022/04/08 10:28:36;;;;;;;5.80;3.27;;;8.70;99.90;;;;;;5013545;28;20850;-83
2022/04/08 10:31:15;;;;;;;6.77;2.97;;;8.80;99.90;;;;;;5015320;28;20291;-84
2022/04/08 10:33:50;;;;;;;14.03;3.83;;;8.70;99.90;;;;;;5019019;28;20228;-84
2022/04/08 10:36:17;;;;;;;5.30;3.23;;;8.60;99.90;;;;;;5009682;28;20246;-84
2022/04/08 10:38:44;;;;;;;6.57;2.83;;;8.60;99.90;;;;;;5010225;28;20274;-83
2022/04/08 10:41:11;;;;;;;4.50;2.47;;;8.60;99.90;;;;;;5015079;28;20282;-83
2022/04/08 10:43:46;;;;;;;6.17;2.80;;;8.50;99.90;;;;;;5011800;28;20211;-82
2022/04/08 10:46:14;;;;;;;7.33;3.23;;;8.40;99.90;;;;;;5011207;28;20327;-83
2022/04/08 10:48:41;;;;;;;7.43;3.30;;;8.30;99.90;;;;;;5012188;28;20318;-83
2022/04/08 10:51:11;;;;;;;7.93;3.07;;;8.30;99.90;;;;;;5016102;28;20274;-82
2022/04/08 10:53:41;;;;;;;7.03;3.63;;;8.30;99.90;;;;;;5016292;28;20216;-84
2022/04/08 10:56:12;;;;;;;4.97;2.80;;;8.20;99.90;;;;;;5020326;28;20232;-83
2022/04/08 10:58:43;;;;;;;7.23;3.63;;;8.10;99.90;;;;;;5019301;28;20684;-84
2022/04/08 11:01:19;;;;;;;6.63;2.63;;;8.10;99.90;;;;;;5019797;28;20204;-83
2022/04/08 11:03:54;;;;;;;5.93;3.30;;;8.20;99.90;;;;;;5021115;28;20215;-85
2022/04/08 11:06:24;;;;;;;9.30;3.10;;;;;;;;;;5020355;28;20208;-84
2022/04/08 11:08:51;;;;;;;7.83;3.60;;;;;;;;;;5020852;28;20225;-84
2022/04/08 11:11:28;;;;;;;8.73;3.37;;;;;;;;;;5020914;28;20263;-85
2022/04/08 11:13:56;;;;;;;6.13;2.80;;;;;;;;;;5018583;28;20208;-84
2022/04/08 11:16:25;;;;;;;8.23;3.00;;;;;;;;;;5016231;28;20228;-84
2022/04/08 11:18:52;;;;;;;7.73;2.80;;;;;;;;;;5016190;28;20377;-85
2022/04/08 11:21:20;;;;;;;7.13;3.03;;;;;;;;;;5019631;28;20213;-83
2022/04/08 11:23:58;;;;;;;8.97;3.10;;;;;;;;;;5021491;28;20210;-85
2022/04/08 11:26:25;;;;;;;9.20;3.10;;;;;;;;;;5016052;28;20192;-85
2022/04/08 11:28:52;;;;;;;6.73;3.30;;;;;;;;;;5017929;28;20295;-84
2022/04/08 11:31:19;;;;;;;10.23;2.73;;;;;;;;;;5018433;28;20204;-85
2022/04/08 11:33:48;;;;;;;8.83;2.60;;;;;;;;;;5019431;28;20268;-84
2022/04/08 11:36:15;;;;;;;4.90;2.73;;;;;;;;;;5020919;28;20319;-84
2022/04/08 11:38:43;;;;;;;5.80;2.77;;;;;;;;;;5017952;28;20255;-84
2022/04/08 11:41:19;;;;;;;5.83;2.63;;;;;;;;;;5021767;28;20224;-81
2022/04/08 11:43:47;;;;;;;8.93;3.03;;;;;;;;;;5022578;28;20292;-85
2022/04/08 11:46:15;;;;;;;10.23;3.33;;;;;;;;;;5019538;28;20236;-83
2022/04/08 11:48:42;;;;;;;14.67;4.47;;;;;;;;;;5021024;28;20229;-84
2022/04/08 11:51:11;;;;;;;7.00;3.00;;;;;;;;;;5019968;28;20275;-85
2022/04/08 11:53:45;;;;;;;7.17;2.90;;;;;;;;;;5019913;28;20266;-83
2022/04/08 11:56:12;;;;;;;8.10;3.50;;;;;;;;;;5022474;28;20247;-84
2022/04/08 11:58:40;;;;;;;6.03;2.90;;;;;;;;;;5016862;28;20220;-85
2022/04/08 12:01:09;;;;;;;5.97;2.23;;;;;;;;;;5018700;28;20493;-85
2022/04/08 12:03:37;;;;;;;3.90;2.30;;;;;;;;;;5018572;28;20200;-84
2022/04/08 12:06:05;;;;;;;5.90;2.73;;;;;;;;;;5018467;28;20211;-85
2022/04/08 12:08:33;;;;;;;7.80;2.77;;;;;;;;;;5021402;28;20228;-84
2022/04/08 12:11:01;;;;;;;7.30;2.80;;;;;;;;;;5023213;28;20224;-84
2022/04/08 12:13:29;;;;;;;5.33;2.40;;;;;;;;;;5020588;28;20280;-85
2022/04/08 12:15:57;;;;;;;6.27;2.37;;;;;;;;;;5018372;28;20233;-83
2022/04/08 12:18:27;;;;;;;7.27;2.27;;;;;;;;;;5014980;28;20232;-85
2022/04/08 12:20:55;;;;;;;5.33;2.00;;;;;;;;;;5016520;28;20200;-83
2022/04/08 12:23:22;;;;;;;4.17;1.67;;;;;;;;;;5016818;28;20210;-84
2022/04/08 12:25:55;;;;;;;6.93;2.17;;;;;;;;;;5017932;28;20695;-84
2022/04/08 12:28:24;;;;;;;5.53;2.00;;;;;;;;;;5018048;28;20288;-83
2022/04/08 12:30:52;;;;;;;5.83;2.60;;;;;;;;;;5015070;28;20205;-85
2022/04/08 12:33:19;;;;;;;7.13;2.20;;;;;;;;;;5014578;28;20211;-85
2022/04/08 12:35:47;;;;;;;2.20;1.10;;;;;;;;;;5013322;28;20251;-82
2022/04/08 12:38:19;;;;;;;3.87;0.90;;;;;;;;;;5032548;23;20212;-77
2022/04/08 12:40:47;;;;;;;1.23;0.70;;;;;;;;;;5006141;28;20605;-77
2022/04/08 12:43:16;;;;;;;4.57;1.20;;;;;;;;;;5003993;28;20287;-77
2022/04/08 12:45:43;;;;;;;2.00;0.87;;;;;;;;;;5006673;28;20205;-77
2022/04/08 12:48:10;;;;;;;3.90;0.80;;;;;;;;;;5006819;28;20209;-78
2022/04/08 12:50:38;;;;;;;2.60;1.07;;;;;;;;;;5008983;28;20322;-79
2022/04/08 12:53:06;;;;;;;13.87;7.93;;;;;;;;;;5010918;28;20654;-78
2022/04/08 12:55:33;;;;;;;2.27;1.00;;;;;;;;;;5008356;28;20631;-81
2022/04/08 12:58:01;;;;;;;3.17;1.10;;;;;;;;;;5003492;28;20223;-79
2022/04/08 13:00:30;;;;;;;4.03;1.90;;;;;;;;;;5007656;28;20343;-79
2022/04/08 13:02:57;;;;;;;2.73;1.10;;;;;;;;;;5008321;28;20204;-80
2022/04/08 13:05:24;;;;;;;6.53;2.07;;;;;;;;;;5006223;28;20228;-77
2022/04/08 13:07:52;;;;;;;3.90;1.10;;;;;;;;;;5010131;28;20218;-79
2022/04/08 13:10:20;;;;;;;2.00;0.70;;;;;;;;;;5005714;28;20224;-78
2022/04/08 13:12:47;;;;;;;4.53;2.87;;;;;;;;;;5009204;28;20735;-78
2022/04/08 13:15:15;;;;;;;5.23;2.50;;;;;;;;;;5001348;28;20200;-80
2022/04/08 13:17:43;;;;;;;5.70;2.17;;;;;;;;;;5011269;28;20217;-78
2022/04/08 13:20:12;;;;;;;2.37;0.90;;;;;;;;;;5006835;28;20235;-77
2022/04/08 13:22:39;;;;;;;4.07;1.87;;;;;;;;;;5009120;28;20212;-79
2022/04/08 13:25:07;;;;;;;13.57;4.63;;;;;;;;;;5012242;28;20205;-79
2022/04/08 13:27:34;;;;;;;1.83;1.00;;;;;;;;;;5005946;28;20729;-80
2022/04/08 13:30:01;;;;;;;2.27;1.10;;;;;;;;;;5009349;28;20658;-78
2022/04/08 13:32:34;;;;;;;6.30;1.00;;;;;;;;;;5008061;28;20222;-78
2022/04/08 13:35:03;;;;;;;4.20;1.00;;;;;;;;;;5005343;28;20330;-78
2022/04/08 13:37:30;;;;;;;2.47;0.80;;;;;;;;;;5006208;28;20290;-82
2022/04/08 13:39:57;;;;;;;3.00;1.07;;;;;;;;;;5006378;28;20621;-79
2022/04/08 13:42:24;;;;;;;3.30;0.80;;;;;;;;;;5008482;28;20223;-79
2022/04/08 13:44:52;;;;;;;4.83;0.70;;;;;;;;;;5003611;28;20212;-80
2022/04/08 13:47:19;;;;;;;2.50;1.03;;;;;;;;;;4998555;28;20291;-79
2022/04/08 13:49:46;;;;;;;2.53;1.33;;;;;;;;;;4993856;28;20322;-79
2022/04/08 13:52:14;;;;;;;1.80;1.30;;;;;;;;;;4998657;28;20204;-79
2022/04/08 13:54:42;;;;;;;4.13;1.07;;;;;;;;;;5000845;28;20294;-80
2022/04/08 13:57:09;;;;;;;1.30;0.93;;;;;;;;;;5000337;28;20224;-80
2022/04/08 13:59:36;;;;;;;1.57;0.90;;;;;;;;;;5005159;28;20228;-79
2022/04/08 14:02:04;;;;;;;5.60;1.70;;;;;;;;;;4999853;28;20306;-79
2022/04/08 14:04:31;;;;;;;9.30;4.27;;;;;;;;;;5005116;28;20282;-78
2022/04/08 14:06:59;;;;;;;4.27;1.27;;;;;;;;;;5002141;28;20204;-78
2022/04/08 14:09:27;;;;;;;2.77;2.00;;;;;;;;;;5004623;28;20601;-78
2022/04/08 14:11:55;;;;;;;3.57;1.13;;;;;;;;;;5002895;28;20200;-78
2022/04/08 14:14:22;;;;;;;4.27;1.20;;;;;;;;;;5002797;28;20275;-78
2022/04/08 14:16:49;;;;;;;4.17;1.20;;;;;;;;;;4998337;28;20982;-79
2022/04/08 14:19:16;;;;;;;2.20;1.20;;;;;;;;;;5005893;28;20235;-77